createdAt,value
2022-12-14T00:09:50.984Z,99871.97
2022-12-14T00:24:52.860Z,99885.56
2022-12-14T00:40:02.427Z,99916.38
2022-12-14T00:55:06.752Z,99945.78
2022-12-14T01:10:09.746Z,99959.75
2022-12-14T01:25:14.829Z,99987.06
2022-12-14T01:40:17.988Z,100008.50
2022-12-14T01:55:27.855Z,100029.56
2022-12-14T02:10:33.164Z,100052.28
2022-12-14T02:25:40.620Z,100076.34
2022-12-14T02:40:57.456Z,100093.56
2022-12-14T02:56:06.429Z,100110.16
2022-12-14T03:11:11.443Z,100118.38
2022-12-14T03:26:24.747Z,100119.81
2022-12-14T03:41:59.345Z,100157.84
2022-12-14T03:57:10.289Z,100178.28
2022-12-14T04:12:51.659Z,100194.28
2022-12-14T04:28:30.421Z,100226.75
2022-12-14T04:43:39.171Z,100228.28
2022-12-14T04:58:41.910Z,100270.31
2022-12-14T05:13:49.100Z,100288.13
2022-12-14T05:28:51.011Z,100308.47
2022-12-14T05:43:52.813Z,100344.22
2022-12-14T05:58:54.628Z,100379.03
2022-12-14T06:13:56.840Z,100397.75
2022-12-14T06:28:59.110Z,100437.47
2022-12-14T06:44:11.193Z,100463.59
2022-12-14T06:59:19.479Z,100487.97
2022-12-14T07:14:21.883Z,100532.06
2022-12-14T07:29:23.719Z,100547.72
2022-12-14T07:44:25.548Z,100571.38
2022-12-14T07:59:30.258Z,100587.09
2022-12-14T08:14:32.965Z,100609.09
2022-12-14T08:29:34.786Z,100611.00
2022-12-14T08:44:44.729Z,100632.00
2022-12-14T09:00:01.411Z,100629.09
2022-12-14T09:15:04.668Z,100655.03
2022-12-14T09:30:10.623Z,100663.97
2022-12-14T09:45:34.457Z,100663.03
2022-12-14T10:00:49.671Z,100670.50
2022-12-14T10:16:53.001Z,100680.13
2022-12-14T10:32:30.485Z,100693.56
2022-12-14T10:47:45.755Z,100697.69
2022-12-14T11:02:56.434Z,100711.84
2022-12-14T11:18:07.626Z,100729.75
2022-12-14T11:33:17.779Z,100712.41
2022-12-14T11:48:24.025Z,100724.91
2022-12-14T12:03:51.791Z,100730.28
2022-12-14T12:19:06.444Z,100760.59
2022-12-14T12:34:24.745Z,100780.31
2022-12-14T12:49:27.249Z,100797.38
2022-12-14T13:04:35.192Z,100816.41
2022-12-14T13:19:51.968Z,100817.44
2022-12-14T13:35:23.591Z,100824.38
2022-12-14T13:50:37.123Z,100848.78
2022-12-14T14:05:45.935Z,100839.19
2022-12-14T14:21:13.150Z,100861.19
2022-12-14T14:36:33.939Z,100860.53
2022-12-14T14:51:37.397Z,100855.09
2022-12-14T15:06:42.143Z,100859.00
2022-12-14T15:21:44.815Z,100875.34
2022-12-14T15:36:48.780Z,100883.69
2022-12-14T15:51:51.913Z,100901.25
2022-12-14T16:07:08.292Z,100904.56
2022-12-14T16:22:23.804Z,100902.00
2022-12-14T16:37:34.233Z,100909.47
2022-12-14T16:52:37.042Z,100918.88
2022-12-14T17:07:38.976Z,100928.97
2022-12-14T17:22:42.088Z,100931.66
2022-12-14T17:37:44.024Z,100946.75
2022-12-14T17:52:46.292Z,100964.19
2022-12-14T18:07:49.746Z,100967.22
2022-12-14T18:22:53.503Z,100966.88
2022-12-14T18:37:55.864Z,100970.31
2022-12-14T18:52:57.773Z,100988.34
2022-12-14T19:08:00.638Z,100975.88
2022-12-14T19:23:03.396Z,100973.06
2022-12-14T19:38:05.341Z,100957.53
2022-12-14T19:53:07.311Z,100952.25
2022-12-14T20:08:09.127Z,100963.09
2022-12-14T20:23:11.319Z,100978.16
2022-12-14T20:38:13.182Z,100982.19
2022-12-14T20:53:15.298Z,100971.25
2022-12-14T21:08:17.090Z,100946.97
2022-12-14T21:23:19.266Z,100920.88
2022-12-14T21:38:21.092Z,100924.75
2022-12-14T21:53:23.152Z,100927.22
2022-12-14T22:08:25.359Z,100925.09
2022-12-14T22:23:28.043Z,100901.44
2022-12-14T22:38:32.752Z,100925.56
2022-12-14T22:53:34.837Z,100910.66
2022-12-14T23:08:36.634Z,100896.03
2022-12-14T23:23:58.677Z,100917.59
2022-12-14T23:39:19.123Z,100915.28
2022-12-14T23:54:39.358Z,100900.75
